aviador You're here:

CYED Decoded Metar

EDMONTON in AB, CANADA
Report Time2018-01-22 02:00:00
UTC Time2018-01-22 02:17:36
Flight Rules vfr VFR
Wind090° at 08 kt
W.Rank090° ranks 14
Current wind is above 090° avg. (5.8)
Visibility9999 m
Phenomena:N/A
Clouds:N/A
Expected CloudBase > 800 ft AGL from Temp-Dew spread
CeilingNone
Temp-8°C (ISA -19)
Dew Point-10°C (86% RH)
AAT-13.9°C
QNH1005 hPa
Density Alt289 ft
Elevation2,257 ft
Report Wrong Elevation
Raw Report
CYED 220200Z AUTO 09008KT 9SM CLR M08/M10 A2968 RMK SLP093=

Extra information for CYED:More info

Metar Taf Metar & Taf Last 4 Metars F.Rules Stats Wind Profile Meteogram Temp Stats Airport Information Weather charts Add Link Nearby VenuesMetar ALERT Operation Metar Decoded Social comments